createdAt,value
2018-08-22T00:01:22.670Z,33.35
2018-08-22T00:03:54.635Z,33.34
2018-08-22T00:06:26.796Z,33.32
2018-08-22T00:08:58.730Z,33.33
2018-08-22T00:11:30.355Z,33.32
2018-08-22T00:14:02.217Z,33.32
2018-08-22T00:16:33.970Z,33.31
2018-08-22T00:19:05.786Z,33.30
2018-08-22T00:21:37.317Z,33.31
2018-08-22T00:24:09.271Z,33.30
2018-08-22T00:28:05.620Z,33.27
2018-08-22T00:30:37.547Z,33.28
2018-08-22T00:33:09.135Z,33.27
2018-08-22T00:35:41.176Z,33.28
2018-08-22T00:38:12.954Z,33.29
2018-08-22T00:40:44.584Z,33.29
2018-08-22T00:43:16.479Z,33.27
2018-08-22T00:45:49.273Z,33.27
2018-08-22T00:48:20.999Z,33.28
2018-08-22T00:50:52.859Z,33.27
2018-08-22T00:53:24.743Z,33.27
2018-08-22T00:55:56.611Z,33.25
2018-08-22T00:58:28.475Z,33.26
2018-08-22T01:01:00.084Z,33.25
2018-08-22T01:03:31.910Z,33.25
2018-08-22T01:06:04.067Z,33.23
2018-08-22T01:08:35.895Z,33.21
2018-08-22T01:11:08.098Z,33.24
2018-08-22T01:13:39.998Z,33.25
2018-08-22T01:16:12.039Z,33.31
2018-08-22T01:18:43.958Z,33.22
2018-08-22T01:21:15.657Z,33.20
2018-08-22T01:23:47.577Z,33.21
2018-08-22T01:26:19.459Z,33.17
2018-08-22T01:28:51.212Z,33.16
2018-08-22T01:31:23.004Z,33.20
2018-08-22T01:33:54.636Z,33.20
2018-08-22T01:36:26.949Z,33.17
2018-08-22T01:38:58.628Z,33.19
2018-08-22T01:41:30.779Z,33.18
2018-08-22T01:44:02.507Z,33.17
2018-08-22T01:46:34.519Z,33.16
2018-08-22T01:49:06.223Z,33.15
2018-08-22T01:51:37.946Z,33.16
2018-08-22T01:54:09.539Z,33.16
2018-08-22T01:56:41.542Z,33.14
2018-08-22T01:59:13.020Z,33.13
2018-08-22T02:01:44.935Z,33.13
2018-08-22T02:04:16.865Z,33.17
2018-08-22T02:06:51.311Z,33.12
2018-08-22T02:09:23.175Z,33.12
2018-08-22T02:11:56.641Z,33.12
2018-08-22T02:14:29.374Z,33.02
2018-08-22T02:17:01.501Z,33.06
2018-08-22T02:19:33.537Z,33.09
2018-08-22T02:22:06.075Z,33.12
2018-08-22T02:24:37.922Z,33.03
2018-08-22T02:27:09.916Z,33.02
2018-08-22T02:29:42.136Z,33.04
2018-08-22T02:32:14.452Z,33.11
2018-08-22T02:34:46.658Z,33.09
2018-08-22T02:37:19.174Z,33.04
2018-08-22T02:39:51.654Z,33.05
2018-08-22T02:42:23.584Z,33.08
2018-08-22T02:44:55.624Z,33.09
2018-08-22T02:47:27.506Z,33.07
2018-08-22T02:49:59.683Z,33.11
2018-08-22T02:52:31.695Z,33.08
2018-08-22T02:55:03.418Z,33.08
2018-08-22T02:57:35.302Z,33.09
2018-08-22T03:00:07.079Z,33.04
2018-08-22T03:02:39.026Z,33.03
2018-08-22T03:05:10.739Z,33.10
2018-08-22T03:07:42.638Z,33.08
2018-08-22T03:10:14.140Z,33.05
2018-08-22T03:12:46.181Z,33.09
2018-08-22T03:15:17.676Z,33.01
2018-08-22T03:17:50.594Z,33.05
2018-08-22T03:20:22.072Z,33.04
2018-08-22T03:22:53.776Z,32.92
2018-08-22T03:25:25.935Z,32.96
2018-08-22T03:27:57.888Z,32.99
2018-08-22T03:30:29.932Z,33.01
2018-08-22T03:33:01.885Z,33.02
2018-08-22T03:35:33.851Z,33.04
2018-08-22T03:38:05.980Z,33.05
2018-08-22T03:40:37.598Z,33.08
2018-08-22T03:43:09.697Z,33.05
2018-08-22T03:45:41.521Z,33.06
2018-08-22T03:48:13.380Z,33.05
2018-08-22T03:50:45.159Z,33.06
2018-08-22T03:53:17.537Z,33.05
2018-08-22T03:55:49.262Z,33.05
2018-08-22T03:58:21.336Z,33.04
2018-08-22T04:00:53.242Z,33.04
2018-08-22T04:03:24.947Z,33.06
2018-08-22T04:05:56.791Z,33.03
2018-08-22T04:08:28.659Z,33.03
2018-08-22T04:11:00.319Z,33.03
2018-08-22T04:13:32.196Z,33.03
2018-08-22T04:16:04.134Z,33.07
2018-08-22T04:18:35.888Z,33.07
2018-08-22T04:21:07.666Z,33.08
2018-08-22T04:23:39.565Z,33.08
2018-08-22T04:26:11.800Z,33.09
2018-08-22T04:28:43.955Z,33.04
2018-08-22T04:31:16.509Z,32.93
2018-08-22T04:33:48.603Z,33.06
2018-08-22T04:36:22.444Z,33.08
2018-08-22T04:38:55.069Z,33.10
2018-08-22T04:41:26.829Z,33.09
2018-08-22T04:43:59.311Z,33.11
2018-08-22T04:46:31.467Z,33.08
2018-08-22T04:49:03.591Z,32.82
2018-08-22T04:51:35.781Z,32.76
2018-08-22T04:54:07.713Z,32.72
2018-08-22T04:56:39.969Z,32.87
2018-08-22T04:59:11.946Z,32.95
2018-08-22T05:01:43.633Z,32.99
2018-08-22T05:04:16.715Z,33.01
2018-08-22T05:06:48.884Z,33.03
2018-08-22T05:09:23.270Z,33.02
2018-08-22T05:11:57.570Z,33.03
2018-08-22T05:14:29.950Z,33.03
2018-08-22T05:17:01.674Z,33.03
2018-08-22T05:19:33.440Z,33.03
2018-08-22T05:22:05.108Z,33.01
2018-08-22T05:24:37.203Z,33.02
2018-08-22T05:27:08.812Z,33.04
2018-08-22T05:29:40.898Z,32.99
2018-08-22T05:32:12.584Z,32.94
2018-08-22T05:34:49.090Z,32.98
2018-08-22T05:37:20.863Z,33.00
2018-08-22T05:39:52.687Z,32.99
2018-08-22T05:49:25.376Z,33.00
2018-08-22T05:51:56.897Z,32.92
2018-08-22T05:54:28.544Z,32.84
2018-08-22T05:57:01.022Z,32.77
2018-08-22T05:59:33.005Z,32.82
2018-08-22T06:02:04.609Z,32.84
2018-08-22T06:04:36.311Z,32.89
2018-08-22T06:07:08.513Z,32.91
2018-08-22T06:09:41.434Z,32.91
2018-08-22T06:12:13.186Z,32.93
2018-08-22T06:14:45.315Z,32.94
2018-08-22T06:17:17.845Z,32.96
2018-08-22T06:19:50.139Z,32.95
2018-08-22T06:22:22.151Z,32.97
2018-08-22T06:24:54.289Z,32.95
2018-08-22T06:27:25.881Z,32.97
2018-08-22T06:29:57.286Z,32.99
2018-08-22T06:32:29.309Z,33.01
2018-08-22T06:35:01.505Z,33.03
2018-08-22T06:37:32.812Z,33.03
2018-08-22T06:40:04.998Z,33.04
2018-08-22T06:42:36.288Z,33.05
2018-08-22T06:45:08.714Z,33.04
2018-08-22T06:47:40.353Z,33.04
2018-08-22T06:50:12.413Z,33.05
2018-08-22T06:52:44.026Z,33.08
2018-08-22T06:55:15.575Z,33.05
2018-08-22T06:57:46.922Z,33.07
2018-08-22T07:00:18.459Z,33.06
2018-08-22T07:02:49.936Z,33.08
2018-08-22T07:05:21.565Z,33.08
2018-08-22T07:07:52.915Z,33.08
2018-08-22T07:10:24.558Z,33.10
2018-08-22T07:12:56.000Z,33.11
2018-08-22T07:15:27.586Z,33.12
2018-08-22T07:17:59.054Z,33.13
2018-08-22T07:20:30.518Z,33.15
2018-08-22T07:23:02.107Z,33.12
2018-08-22T07:25:33.597Z,33.13
2018-08-22T07:28:05.142Z,33.15
2018-08-22T07:30:36.778Z,33.13
2018-08-22T07:33:08.275Z,33.15
2018-08-22T07:35:40.116Z,33.14
2018-08-22T07:38:11.730Z,33.15
2018-08-22T07:40:43.194Z,33.15
2018-08-22T07:43:14.632Z,33.17
2018-08-22T07:45:45.964Z,33.17
2018-08-22T07:48:17.512Z,33.18
2018-08-22T07:50:50.381Z,33.19
2018-08-22T07:53:21.870Z,33.19
2018-08-22T07:55:53.672Z,33.19
2018-08-22T07:58:25.151Z,33.21
2018-08-22T08:00:56.836Z,33.21
2018-08-22T08:03:28.506Z,33.21
2018-08-22T08:05:59.733Z,33.22
2018-08-22T08:08:31.676Z,33.22
2018-08-22T08:11:03.426Z,33.24
2018-08-22T08:13:34.821Z,33.24
2018-08-22T08:16:06.448Z,33.25
2018-08-22T08:18:38.087Z,33.24
2018-08-22T08:21:09.782Z,33.24
2018-08-22T08:23:41.589Z,33.26
2018-08-22T08:26:13.350Z,33.26
2018-08-22T08:28:45.109Z,33.26
2018-08-22T08:31:16.806Z,33.28
2018-08-22T08:33:48.496Z,33.28
2018-08-22T08:36:20.317Z,33.27
2018-08-22T08:38:51.761Z,33.29
2018-08-22T08:41:23.585Z,33.28
2018-08-22T08:43:55.076Z,33.30
2018-08-22T08:46:26.525Z,33.31
2018-08-22T08:48:57.921Z,33.31
2018-08-22T08:51:29.933Z,33.31
2018-08-22T08:54:01.500Z,33.30
2018-08-22T08:56:33.178Z,33.31
2018-08-22T08:59:04.879Z,33.31
2018-08-22T09:01:36.669Z,33.33
2018-08-22T09:04:08.043Z,33.32
2018-08-22T09:06:39.888Z,33.35
2018-08-22T09:09:12.077Z,33.33
2018-08-22T09:11:50.454Z,33.34
2018-08-22T09:14:22.313Z,33.33
2018-08-22T09:16:53.825Z,33.36
2018-08-22T09:19:25.407Z,33.35
2018-08-22T09:21:56.795Z,33.36
2018-08-22T09:24:28.114Z,33.36
2018-08-22T09:26:59.724Z,33.36
2018-08-22T09:29:31.231Z,33.38
2018-08-22T09:32:03.094Z,33.38
2018-08-22T09:34:34.488Z,33.38
2018-08-22T09:37:06.209Z,33.39
2018-08-22T09:39:37.643Z,33.37
2018-08-22T09:42:09.092Z,33.39
2018-08-22T09:44:40.738Z,33.39
2018-08-22T09:47:12.164Z,33.40
2018-08-22T09:49:43.697Z,33.40
2018-08-22T09:52:16.311Z,33.41
2018-08-22T09:54:57.495Z,33.41
2018-08-22T09:57:29.968Z,33.40
2018-08-22T10:00:01.681Z,33.42
2018-08-22T10:02:33.039Z,33.43
2018-08-22T10:05:04.707Z,33.43
2018-08-22T10:07:36.407Z,33.44
2018-08-22T10:10:08.013Z,33.45
2018-08-22T10:12:39.485Z,33.46
2018-08-22T10:15:11.147Z,33.46
2018-08-22T10:17:42.556Z,33.48
2018-08-22T10:20:14.240Z,33.48
2018-08-22T10:22:45.887Z,33.48
2018-08-22T10:25:17.377Z,33.47
2018-08-22T10:27:49.014Z,33.49
2018-08-22T10:30:20.432Z,33.49
2018-08-22T10:32:52.446Z,33.49
2018-08-22T10:35:23.959Z,33.50
2018-08-22T10:37:55.593Z,33.51
2018-08-22T10:40:27.222Z,33.51
2018-08-22T10:42:58.776Z,33.50
2018-08-22T10:45:30.355Z,33.51
2018-08-22T10:48:01.874Z,33.53
2018-08-22T10:50:33.528Z,33.54
2018-08-22T10:53:05.272Z,33.55
2018-08-22T10:55:36.844Z,33.56
2018-08-22T10:58:08.459Z,33.56
2018-08-22T11:00:39.727Z,33.55
2018-08-22T11:03:11.333Z,33.54
2018-08-22T11:05:43.039Z,33.55
2018-08-22T11:08:14.691Z,33.56
2018-08-22T11:10:46.385Z,33.56
2018-08-22T11:13:18.401Z,33.57
2018-08-22T11:15:50.119Z,33.59
2018-08-22T11:18:22.186Z,33.59
2018-08-22T11:20:51.974Z,33.58
2018-08-22T11:23:34.530Z,33.61
2018-08-22T11:26:15.814Z,33.60
2018-08-22T11:28:56.823Z,33.61
2018-08-22T11:31:37.799Z,33.63
2018-08-22T11:34:19.255Z,33.63
2018-08-22T11:37:13.123Z,33.63
2018-08-22T11:39:47.544Z,33.64
2018-08-22T11:42:19.041Z,33.64
2018-08-22T11:44:50.679Z,33.64
2018-08-22T11:47:22.315Z,33.64
2018-08-22T11:49:53.797Z,33.65
2018-08-22T11:52:25.370Z,33.67
2018-08-22T11:54:57.078Z,33.67
2018-08-22T11:57:28.456Z,33.66
2018-08-22T11:59:59.934Z,33.67
2018-08-22T12:02:31.617Z,33.67
2018-08-22T12:05:03.441Z,33.67
2018-08-22T12:07:35.122Z,33.67
2018-08-22T12:10:06.940Z,33.67
2018-08-22T12:12:38.870Z,33.68
2018-08-22T12:15:10.692Z,33.69
2018-08-22T12:17:42.437Z,33.70
2018-08-22T12:20:14.192Z,33.72
2018-08-22T12:22:46.233Z,33.72
2018-08-22T12:25:19.152Z,33.73
2018-08-22T12:27:50.589Z,33.72
2018-08-22T12:30:22.204Z,33.73
2018-08-22T12:32:53.792Z,33.72
2018-08-22T12:35:25.580Z,33.73
2018-08-22T12:37:56.813Z,33.74
2018-08-22T12:40:28.521Z,33.74
2018-08-22T12:43:00.124Z,33.75
2018-08-22T12:45:31.784Z,33.74
2018-08-22T12:48:03.687Z,33.75
2018-08-22T12:50:35.107Z,33.75
2018-08-22T12:53:06.784Z,33.75
2018-08-22T12:55:38.446Z,33.78
2018-08-22T12:58:10.007Z,33.76
2018-08-22T13:00:41.517Z,33.77
2018-08-22T13:03:13.184Z,33.76
2018-08-22T13:05:45.186Z,33.77
2018-08-22T13:08:16.491Z,33.78
2018-08-22T13:10:48.188Z,33.79
2018-08-22T13:13:19.713Z,33.80
2018-08-22T13:15:51.413Z,33.80
2018-08-22T13:18:23.133Z,33.80
2018-08-22T13:20:54.743Z,33.80
2018-08-22T13:23:26.162Z,33.79
2018-08-22T13:25:57.895Z,33.78
2018-08-22T13:28:29.450Z,33.81
2018-08-22T13:31:01.260Z,33.78
2018-08-22T13:33:32.620Z,33.80
2018-08-22T13:36:03.944Z,33.80
2018-08-22T13:38:35.539Z,33.80
2018-08-22T13:41:07.338Z,33.80
2018-08-22T13:43:39.084Z,33.81
2018-08-22T13:46:10.702Z,33.81
2018-08-22T13:48:42.152Z,33.82
2018-08-22T13:51:13.802Z,33.82
2018-08-22T13:53:45.421Z,33.81
2018-08-22T13:56:16.934Z,33.82
2018-08-22T13:58:48.490Z,33.83
2018-08-22T14:01:20.290Z,33.82
2018-08-22T14:03:52.042Z,33.84
2018-08-22T14:06:23.719Z,33.83
2018-08-22T14:08:55.324Z,33.83
2018-08-22T14:11:27.084Z,33.85
2018-08-22T14:13:58.644Z,33.84
2018-08-22T14:16:30.295Z,33.84
2018-08-22T14:19:01.807Z,33.85
2018-08-22T14:21:32.968Z,33.85
2018-08-22T14:24:04.446Z,33.86
2018-08-22T14:26:35.939Z,33.84
2018-08-22T14:29:07.661Z,33.85
2018-08-22T14:31:39.411Z,33.86
2018-08-22T14:34:11.505Z,33.85
2018-08-22T14:36:43.134Z,33.85
2018-08-22T14:39:14.843Z,33.85
2018-08-22T14:41:46.486Z,33.87
2018-08-22T14:44:17.750Z,33.87
2018-08-22T14:46:49.385Z,33.87
2018-08-22T14:49:21.037Z,33.87
2018-08-22T14:51:52.448Z,33.87
2018-08-22T14:54:24.201Z,33.88
2018-08-22T14:56:55.763Z,33.87
2018-08-22T14:59:27.702Z,33.88
2018-08-22T15:01:59.369Z,33.88
2018-08-22T15:04:31.037Z,33.87
2018-08-22T15:07:03.300Z,33.87
2018-08-22T15:09:34.786Z,33.88
2018-08-22T15:12:06.610Z,33.88
2018-08-22T15:14:38.341Z,33.87
2018-08-22T15:17:10.410Z,33.89
2018-08-22T15:19:41.845Z,33.88
2018-08-22T15:22:13.600Z,33.89
2018-08-22T15:24:47.023Z,33.89
2018-08-22T15:27:20.599Z,33.89
2018-08-22T15:29:52.361Z,33.89
2018-08-22T15:32:24.569Z,33.89
2018-08-22T15:34:57.442Z,33.88
2018-08-22T15:37:29.207Z,33.89
2018-08-22T15:40:00.680Z,33.90
2018-08-22T15:42:32.585Z,33.91
2018-08-22T15:45:04.444Z,33.92
2018-08-22T15:47:36.040Z,33.92
2018-08-22T15:50:07.774Z,33.92
2018-08-22T15:52:39.760Z,33.92
2018-08-22T15:55:18.556Z,33.92
2018-08-22T15:58:02.263Z,33.92
2018-08-22T16:00:52.511Z,33.92
2018-08-22T16:03:25.343Z,33.92
2018-08-22T16:05:57.461Z,33.93
2018-08-22T16:08:29.845Z,33.92
2018-08-22T16:11:05.873Z,33.92
2018-08-22T16:13:38.349Z,33.91
2018-08-22T16:16:09.798Z,33.92
2018-08-22T16:18:41.592Z,33.91
2018-08-22T16:21:13.089Z,33.93
2018-08-22T16:23:44.699Z,33.92
2018-08-22T16:26:16.358Z,33.92
2018-08-22T16:28:55.176Z,33.91
2018-08-22T16:31:35.090Z,33.92
2018-08-22T16:34:06.751Z,33.94
2018-08-22T16:36:39.909Z,33.92
2018-08-22T16:39:11.819Z,33.93
2018-08-22T16:41:43.527Z,33.93
2018-08-22T16:44:15.489Z,33.93
2018-08-22T16:46:47.053Z,33.93
2018-08-22T16:49:19.043Z,33.93
2018-08-22T16:51:51.114Z,33.93
2018-08-22T16:54:22.558Z,33.94
2018-08-22T16:56:54.051Z,33.94
2018-08-22T16:59:25.715Z,33.92
2018-08-22T17:01:57.387Z,33.93
2018-08-22T17:04:29.220Z,33.94
2018-08-22T17:07:05.430Z,33.93
2018-08-22T17:09:37.287Z,33.94
2018-08-22T17:12:08.845Z,33.92
2018-08-22T17:14:40.494Z,33.92
2018-08-22T17:17:12.011Z,33.93
2018-08-22T17:19:44.033Z,33.93
2018-08-22T17:22:15.636Z,33.92
2018-08-22T17:24:47.971Z,33.94
2018-08-22T17:27:19.612Z,33.92
2018-08-22T17:29:50.885Z,33.92
2018-08-22T17:32:22.538Z,33.93
2018-08-22T17:34:54.257Z,33.93
2018-08-22T17:37:25.746Z,33.92
2018-08-22T17:39:57.349Z,33.93
2018-08-22T17:42:29.100Z,33.92
2018-08-22T17:45:00.632Z,33.93
2018-08-22T17:47:32.249Z,33.92
2018-08-22T17:50:10.936Z,33.91
2018-08-22T17:52:42.359Z,33.92
2018-08-22T17:55:14.113Z,33.90
2018-08-22T17:57:45.603Z,33.91
2018-08-22T18:00:17.345Z,33.92
2018-08-22T18:02:49.778Z,33.92
2018-08-22T18:05:21.458Z,33.91
2018-08-22T18:07:52.906Z,33.92
2018-08-22T18:10:24.581Z,33.91
2018-08-22T18:12:56.837Z,33.91
2018-08-22T18:15:28.243Z,33.91
2018-08-22T18:17:59.948Z,33.91
2018-08-22T18:20:31.930Z,33.89
2018-08-22T18:23:03.031Z,33.90
2018-08-22T18:25:34.864Z,33.89
2018-08-22T18:28:07.671Z,33.90
2018-08-22T18:30:39.952Z,33.89
2018-08-22T18:33:11.357Z,33.89
2018-08-22T18:35:45.771Z,33.89
2018-08-22T18:38:17.496Z,33.88
2018-08-22T18:41:20.514Z,33.88
2018-08-22T18:43:52.042Z,33.89
2018-08-22T18:46:24.082Z,33.88
2018-08-22T18:48:55.749Z,33.89
2018-08-22T18:51:28.068Z,33.87
2018-08-22T18:53:59.941Z,33.88
2018-08-22T18:56:31.589Z,33.89
2018-08-22T18:59:11.592Z,33.89
2018-08-22T19:01:43.290Z,33.87
2018-08-22T19:04:15.029Z,33.87
2018-08-22T19:06:46.855Z,33.88
2018-08-22T19:09:18.540Z,33.86
2018-08-22T19:11:50.747Z,33.86
2018-08-22T19:14:31.579Z,33.87
2018-08-22T19:17:03.324Z,33.89
2018-08-22T19:19:39.830Z,33.85
2018-08-22T19:22:11.574Z,33.87
2018-08-22T19:24:48.418Z,33.87
2018-08-22T19:27:20.741Z,33.86
2018-08-22T19:29:52.419Z,33.86
2018-08-22T19:32:23.862Z,33.86
2018-08-22T19:34:58.153Z,33.85
2018-08-22T19:37:30.260Z,33.84
2018-08-22T19:40:06.952Z,33.84
2018-08-22T19:42:40.805Z,33.85
2018-08-22T19:45:12.597Z,33.86
2018-08-22T19:47:43.979Z,33.86
2018-08-22T19:50:15.471Z,33.85
2018-08-22T19:52:47.182Z,33.86
2018-08-22T19:55:18.791Z,33.84
2018-08-22T19:57:50.479Z,33.83
2018-08-22T20:00:21.682Z,33.84
2018-08-22T20:02:53.391Z,33.84
2018-08-22T20:05:24.949Z,33.85
2018-08-22T20:07:56.678Z,33.82
2018-08-22T20:10:29.037Z,33.83
2018-08-22T20:13:00.742Z,33.82
2018-08-22T20:15:32.172Z,33.81
2018-08-22T20:18:03.937Z,33.84
2018-08-22T20:20:35.520Z,33.82
2018-08-22T20:23:06.758Z,33.83
2018-08-22T20:25:38.874Z,33.82
2018-08-22T20:28:10.541Z,33.81
2018-08-22T20:30:42.022Z,33.81
2018-08-22T20:33:13.601Z,33.80
2018-08-22T20:35:45.954Z,33.81
2018-08-22T20:38:17.742Z,33.80
2018-08-22T20:40:51.465Z,33.79
2018-08-22T20:43:27.595Z,33.79
2018-08-22T20:45:59.276Z,33.79
2018-08-22T20:48:30.915Z,33.78
2018-08-22T20:51:02.569Z,33.78
2018-08-22T20:53:33.760Z,33.79
2018-08-22T20:56:05.295Z,33.79
2018-08-22T20:58:36.884Z,33.77
2018-08-22T21:01:08.577Z,33.78
2018-08-22T21:10:42.224Z,33.76
2018-08-22T21:13:30.607Z,33.75
2018-08-22T21:16:02.073Z,33.77
2018-08-22T21:18:33.814Z,33.76
2018-08-22T21:21:10.804Z,33.75
2018-08-22T21:23:43.226Z,33.76
2018-08-22T21:26:21.965Z,33.75
2018-08-22T21:28:53.606Z,33.74
2018-08-22T21:31:25.145Z,33.74
2018-08-22T21:33:57.145Z,33.74
2018-08-22T21:36:28.906Z,33.74
2018-08-22T21:39:00.432Z,33.74
2018-08-22T21:41:31.883Z,33.73
2018-08-22T21:44:03.364Z,33.73
2018-08-22T21:46:34.843Z,33.75
2018-08-22T21:49:11.161Z,33.73
2018-08-22T21:51:43.531Z,33.70
2018-08-22T21:54:15.112Z,33.72
2018-08-22T21:56:47.422Z,33.72
2018-08-22T21:59:19.090Z,33.70
2018-08-22T22:01:55.330Z,33.70
2018-08-22T22:04:31.262Z,33.69
2018-08-22T22:07:03.272Z,33.68
2018-08-22T22:09:35.286Z,33.69
2018-08-22T22:12:11.233Z,33.68
2018-08-22T22:14:44.423Z,33.70
2018-08-22T22:17:16.635Z,33.69
2018-08-22T22:19:48.698Z,33.69
2018-08-22T22:22:20.609Z,33.69
2018-08-22T22:24:56.380Z,33.68
2018-08-22T22:27:28.989Z,33.68
2018-08-22T22:30:05.346Z,33.67
2018-08-22T22:32:38.203Z,33.67
2018-08-22T22:35:09.675Z,33.68
2018-08-22T22:37:41.155Z,33.68
2018-08-22T22:40:12.795Z,33.68
2018-08-22T22:42:44.459Z,33.66
2018-08-22T22:45:16.715Z,33.67
2018-08-22T22:47:48.117Z,33.65
2018-08-22T22:50:19.629Z,33.65
2018-08-22T22:52:51.286Z,33.65
2018-08-22T22:55:22.795Z,33.65
2018-08-22T22:57:54.459Z,33.65
2018-08-22T23:00:26.406Z,33.65
2018-08-22T23:03:02.569Z,33.64
2018-08-22T23:05:33.855Z,33.63
2018-08-22T23:08:05.553Z,33.66
2018-08-22T23:10:37.137Z,33.63
2018-08-22T23:13:08.741Z,33.63
2018-08-22T23:15:39.913Z,33.63
2018-08-22T23:18:11.576Z,33.64
2018-08-22T23:20:43.987Z,33.63
2018-08-22T23:23:31.320Z,33.63
2018-08-22T23:26:08.950Z,33.64
2018-08-22T23:28:41.041Z,33.62
2018-08-22T23:31:12.886Z,33.62
2018-08-22T23:33:44.784Z,33.62
2018-08-22T23:36:16.538Z,33.63
2018-08-22T23:38:48.367Z,33.60
2018-08-22T23:41:20.226Z,33.61
2018-08-22T23:43:53.252Z,33.60
2018-08-22T23:46:24.782Z,33.60
2018-08-22T23:48:58.645Z,33.58
2018-08-22T23:51:30.278Z,33.59
2018-08-22T23:54:02.526Z,33.59
2018-08-22T23:56:34.253Z,33.57
2018-08-22T23:59:06.654Z,33.58
